Weather Today Salzburg - meteoblue (2023)

Icon

Weather Today Salzburg - meteoblue (1)

Weather Today Salzburg - meteoblue (2)

Weather Today Salzburg - meteoblue (3)

Weather Today Salzburg - meteoblue (4)

Weather Today Salzburg - meteoblue (5)

Weather Today Salzburg - meteoblue (6)

Weather Today Salzburg - meteoblue (7)

(°C)

-2°

-1°

-1°

(°C)

-6°

-5°

-4°

-4°

-3°

-2°

-1°

SE

SE

WNW

NNW

NW

NW

NNW

(mph)

3-5

1-5

1-4

1-3

2-6

2-4

2-3

(mm)

(%)

1

6

Sun elevation

/ -18.3°

Weather Today Salzburg - meteoblue (8)

UV 1

07:42

16:17

16:53

09:14

METAR for Salzburg (LOWS)

Time Conditions Temperature/
Dewpoint
Wind Visibility Weather Clouds Pressure Change Raw
VFR -2°C / -4°C 110º variable 080º to 140º 3kt >10km - Clear 1004 - LOWS 090420Z AUTO 11003KT 080V140 9999 NSC M02/M04 Q1004
VFR -2°C / -4°C 120º variable 090º to 160º 3kt >10km - Few Clouds 13000ft 1004 - LOWS 090350Z AUTO 12003KT 090V160 9999 FEW130 M02/M04 Q1004
VFR -2°C / -4°C variable 2kt >10km - Clear 1005 - LOWS 090320Z AUTO VRB02KT 9999 NSC M02/M04 Q1005
VFR -2°C / -4°C 120º variable 080º to 140º 4kt >10km - Clear 1005 - LOWS 090250Z AUTO 12004KT 080V140 9999 NSC M02/M04 Q1005
VFR -2°C / -4°C 150º variable 090º to 240º 3kt >10km - Clear 1006 - LOWS 090220Z AUTO 15003KT 090V240 9999 NSC M02/M04 Q1006
VFR -4°C / -5°C 160º 4kt >10km - Clear 1006 - LOWS 090150Z AUTO 16004KT 9999 NSC M04/M05 Q1006
VFR -4°C / -4°C variable 1kt >10km - Clear 1007 - LOWS 090120Z AUTO VRB01KT 9999 NSC M04/M04 Q1007
VFR -3°C / -4°C variable 1kt >10km - Clear 1006 - LOWS 090050Z AUTO VRB01KT 9999 NSC M03/M04 Q1006
VFR -3°C / -4°C variable 2kt >10km - Clear 1006 - LOWS 090020Z AUTO VRB02KT 9999 NSC M03/M04 Q1006
VFR -2°C / -4°C 130º 4kt >10km - Clear 1006 - LOWS 082350Z AUTO 13004KT 9999 NSC M02/M04 Q1006
VFR -3°C / -4°C 160º variable 130º to 190º 5kt >10km - Clear 1007 - LOWS 082320Z AUTO 16005KT 130V190 9999 NSC M03/M04 Q1007
VFR -3°C / -4°C 150º 3kt >10km - Clear 1007 - LOWS 082220Z AUTO 15003KT 9999 NCD M03/M04 Q1007
VFR -4°C / -5°C variable 2kt >10km - Clouds and Visibility OK 1007 No Significant change LOWS 082150Z VRB02KT CAVOK M04/M05 Q1007 NOSIG
VFR -3°C / -4°C variable 2kt >10km - Clouds and Visibility OK 1007 No Significant change LOWS 082120Z VRB02KT CAVOK M03/M04 Q1007 NOSIG
VFR -4°C / -5°C variable 2kt >10km - Clouds and Visibility OK 1008 No Significant change LOWS 082050Z VRB02KT CAVOK M04/M05 Q1008 NOSIG
VFR -4°C / -5°C variable 1kt >10km - Clouds and Visibility OK 1008 No Significant change LOWS 082020Z VRB01KT CAVOK M04/M05 Q1008 NOSIG
VFR -3°C / -4°C 170º variable 130º to 190º 3kt >10km - Clouds and Visibility OK 1008 No Significant change LOWS 081950Z 17003KT 130V190 CAVOK M03/M04 Q1008 NOSIG
VFR -2°C / -4°C variable 1kt >10km - Clouds and Visibility OK 1007 No Significant change LOWS 081920Z VRB01KT CAVOK M02/M04 Q1007 NOSIG
VFR -2°C / -3°C 170º 4kt >10km - Clouds and Visibility OK 1008 No Significant change LOWS 081850Z 17004KT CAVOK M02/M03 Q1008 NOSIG
VFR -1°C / -3°C 110º 3kt >10km - Clouds and Visibility OK 1007 No Significant change LOWS 081820Z 11003KT CAVOK M01/M03 Q1007 NOSIG
VFR -1°C / -3°C 150º 6kt >10km - Clouds and Visibility OK 1008 No Significant change LOWS 081750Z 15006KT CAVOK M01/M03 Q1008 NOSIG
VFR -2°C / -3°C 170º 5kt >10km - Clouds and Visibility OK 1008 No Significant change LOWS 081720Z 17005KT CAVOK M02/M03 Q1008 NOSIG
VFR -2°C / -3°C 180º 5kt >10km - Clouds and Visibility OK 1008 No Significant change LOWS 081650Z 18005KT CAVOK M02/M03 Q1008 NOSIG
VFR -1°C / -3°C 160º 4kt >10km - Few Clouds 4000ft 1008 No Significant change LOWS 081620Z 16004KT 9999 FEW040 M01/M03 Q1008 NOSIG

VFR

-2°C / -4°C

[More]

Wind 110º variable 080º to 140º 3kt
Visibility >10km
Weather -
Clouds Clear
Pressure 1004
Change -
Raw LOWS 090420Z AUTO 11003KT 080V140 9999 NSC M02/M04 Q1004

VFR

-2°C / -4°C

[More]

Wind 120º variable 090º to 160º 3kt
Visibility >10km
Weather -
Clouds Few Clouds 13000ft
Pressure 1004
Change -
Raw LOWS 090350Z AUTO 12003KT 090V160 9999 FEW130 M02/M04 Q1004

(Video) Partnership Series: Meteoblue - Weather Forecast System

VFR

-2°C / -4°C

[More]

Wind variable 2kt
Visibility >10km
Weather -
Clouds Clear
Pressure 1005
Change -
Raw LOWS 090320Z AUTO VRB02KT 9999 NSC M02/M04 Q1005

VFR

-2°C / -4°C

[More]

Wind 120º variable 080º to 140º 4kt
Visibility >10km
Weather -
Clouds Clear
Pressure 1005
Change -
Raw LOWS 090250Z AUTO 12004KT 080V140 9999 NSC M02/M04 Q1005

VFR

-2°C / -4°C

[More]

Wind 150º variable 090º to 240º 3kt
Visibility >10km
Weather -
Clouds Clear
Pressure 1006
Change -
Raw LOWS 090220Z AUTO 15003KT 090V240 9999 NSC M02/M04 Q1006

VFR

-4°C / -5°C

[More]

Wind 160º 4kt
Visibility >10km
Weather -
Clouds Clear
Pressure 1006
Change -
Raw LOWS 090150Z AUTO 16004KT 9999 NSC M04/M05 Q1006

VFR

-4°C / -4°C

[More]

Wind variable 1kt
Visibility >10km
Weather -
Clouds Clear
Pressure 1007
Change -
Raw LOWS 090120Z AUTO VRB01KT 9999 NSC M04/M04 Q1007

VFR

-3°C / -4°C

[More]

Wind variable 1kt
Visibility >10km
Weather -
Clouds Clear
Pressure 1006
Change -
Raw LOWS 090050Z AUTO VRB01KT 9999 NSC M03/M04 Q1006

VFR

-3°C / -4°C

[More]

(Video) Microsoft Flight Simulator 2020 | The most advanced weather data ever | Meteoblue

Wind variable 2kt
Visibility >10km
Weather -
Clouds Clear
Pressure 1006
Change -
Raw LOWS 090020Z AUTO VRB02KT 9999 NSC M03/M04 Q1006

VFR

-2°C / -4°C

[More]

Wind 130º 4kt
Visibility >10km
Weather -
Clouds Clear
Pressure 1006
Change -
Raw LOWS 082350Z AUTO 13004KT 9999 NSC M02/M04 Q1006

VFR

-3°C / -4°C

[More]

Wind 160º variable 130º to 190º 5kt
Visibility >10km
Weather -
Clouds Clear
Pressure 1007
Change -
Raw LOWS 082320Z AUTO 16005KT 130V190 9999 NSC M03/M04 Q1007

VFR

-3°C / -4°C

[More]

Wind 150º 3kt
Visibility >10km
Weather -
Clouds Clear
Pressure 1007
Change -
Raw LOWS 082220Z AUTO 15003KT 9999 NCD M03/M04 Q1007

VFR

-4°C / -5°C

[More]

Wind variable 2kt
Visibility >10km
Weather -
Clouds Clouds and Visibility OK
Pressure 1007
Change No Significant change
Raw LOWS 082150Z VRB02KT CAVOK M04/M05 Q1007 NOSIG

VFR

-3°C / -4°C

[More]

Wind variable 2kt
Visibility >10km
Weather -
Clouds Clouds and Visibility OK
Pressure 1007
Change No Significant change
Raw LOWS 082120Z VRB02KT CAVOK M03/M04 Q1007 NOSIG

VFR

-4°C / -5°C

[More]

Wind variable 2kt
Visibility >10km
Weather -
Clouds Clouds and Visibility OK
Pressure 1008
Change No Significant change
Raw LOWS 082050Z VRB02KT CAVOK M04/M05 Q1008 NOSIG

(Video) 5 Mistakes Tourists Make When They Visit Vienna, Austria

VFR

-4°C / -5°C

[More]

Wind variable 1kt
Visibility >10km
Weather -
Clouds Clouds and Visibility OK
Pressure 1008
Change No Significant change
Raw LOWS 082020Z VRB01KT CAVOK M04/M05 Q1008 NOSIG

VFR

-3°C / -4°C

[More]

Wind 170º variable 130º to 190º 3kt
Visibility >10km
Weather -
Clouds Clouds and Visibility OK
Pressure 1008
Change No Significant change
Raw LOWS 081950Z 17003KT 130V190 CAVOK M03/M04 Q1008 NOSIG

VFR

-2°C / -4°C

[More]

Wind variable 1kt
Visibility >10km
Weather -
Clouds Clouds and Visibility OK
Pressure 1007
Change No Significant change
Raw LOWS 081920Z VRB01KT CAVOK M02/M04 Q1007 NOSIG

VFR

-2°C / -3°C

[More]

Wind 170º 4kt
Visibility >10km
Weather -
Clouds Clouds and Visibility OK
Pressure 1008
Change No Significant change
Raw LOWS 081850Z 17004KT CAVOK M02/M03 Q1008 NOSIG

VFR

-1°C / -3°C

[More]

Wind 110º 3kt
Visibility >10km
Weather -
Clouds Clouds and Visibility OK
Pressure 1007
Change No Significant change
Raw LOWS 081820Z 11003KT CAVOK M01/M03 Q1007 NOSIG

VFR

-1°C / -3°C

[More]

Wind 150º 6kt
Visibility >10km
Weather -
Clouds Clouds and Visibility OK
Pressure 1008
Change No Significant change
Raw LOWS 081750Z 15006KT CAVOK M01/M03 Q1008 NOSIG

VFR

-2°C / -3°C

[More]

(Video) 5 Things American Tourists Shouldn't Wear in Europe

Wind 170º 5kt
Visibility >10km
Weather -
Clouds Clouds and Visibility OK
Pressure 1008
Change No Significant change
Raw LOWS 081720Z 17005KT CAVOK M02/M03 Q1008 NOSIG

VFR

-2°C / -3°C

[More]

Wind 180º 5kt
Visibility >10km
Weather -
Clouds Clouds and Visibility OK
Pressure 1008
Change No Significant change
Raw LOWS 081650Z 18005KT CAVOK M02/M03 Q1008 NOSIG

VFR

-1°C / -3°C

[More]

Wind 160º 4kt
Visibility >10km
Weather -
Clouds Few Clouds 4000ft
Pressure 1008
Change No Significant change
Raw LOWS 081620Z 16004KT 9999 FEW040 M01/M03 Q1008 NOSIG

TAF for Salzburg (LOWS)

From till

Maximum Temperature 1ºC on . Minimum Temperature -4ºC on .
From till Wind 150º 5kt. Visibility 10km or more. Nil Significant Cloud.
Temporarly from till Wind variable 1kt. Visibility 1200m. patches Fog . Few Clouds 400ft.
With 30% probability, Temporarly from till Visibility 402.335m. freezing Fog . Broken Clouds 400ft.
Becoming from till Wind 340º 4kt. Visibility 10km or more. Scattered Clouds 5000ft. Broken Clouds 9000ft.
With 30% probability, Temporarly from till Light freezing Rain .
Temporarly from till Light Snow Light Rain .
Temporarly from till Light Rain Light Snow .
Becoming from till Wind 150º 5kt. Visibility 10km or more. Scattered Clouds 5000ft. Broken Clouds 9000ft.

Raw: TAF LOWS 082315Z 0900/0924 15005KT CAVOK TX01/0918Z TNM04/0900Z TEMPO 0900/0906 VRB01KT 1200 BCFG FEW004 PROB30 TEMPO 0900/0906 0400 FZFG BKN004 BECMG 0904/0906 34004KT 9999 SCT050 BKN090 TEMPO 0908/0912 -SNRA PROB30 TEMPO 0908/0910 -FZRA BECMG 0916/0918 15005KT TEMPO 0916/0921 -RASN

Other airports around Salzburg

  • Munich International Airport (EDDM) / 109 km
  • Zeltweg Airport (LOXZ) / 145 km
  • Lechfeld Air Base (ETSL) / 166 km
  • Trieste – Friuli Venezia Giulia Airport (LIPQ) / 220 km
  • Karlovy Vary Airport (LKKV) / 269 km

rainNOW: Rain nowcast for Salzburg and surroundings (25km radius)

0.0 mm

0.0 mm

0.0 mm

0.0 mm

0.0 mm

0.0 mm

0.0 mm

0.0 mm

0.0 mm

0.0 mm

0.0 mm

0.0 mm

Radar for Salzburg

Drizzle

Light

Moderate

Heavy

Very Heavy

Hail

The location marker is placed on Salzburg. This animation shows the precipitation radar for the last hour, as well as a 2h forecast. Drizzle or light snow fall might be invisible for the radar. Precipitation intensity is colour coded, ranging from light blue to orange.
Copyright 2022 Deutscher Wetterdienst / meteoblue.

Current satellite and rain images for Salzburg, Austria

The location marker is placed on Salzburg. [More]

The real-time satellite image combines visible light during daytime with infrared radiation during nighttime. At night, the image is not dark as infrared radiation can detect temperature differences. Unfortunately, low clouds and fog are difficult to distinguish from ground temperatures and thus can be almost invisible during the night. Meteosat satellite images for Europe are updated in real-time every 5 minutes. GOES-16/GOES-17 (North & South America) and Himawari (Asia) images update every 10 minutes.

Precipitation is estimated from radar and satellites. Precipitation estimates from satellites are less accurate at night than during daytime. Orange crosses mark places where lightning was detected (over Europe).

Copyright 2022 EUMETSAT / meteoblue. Lightning data provided by nowcast.

(Video) Microsoft's Flight Simulators EPIC New Weather Forecast Technology

More weather data

where2go Meteograms MultiModel

FAQs

How accurate is Meteoblue? ›

The meteoblue simulations for global surface radiation is consistent over continents and reaches a monthly mean absolute error of 1-15% in 95% of all places.

Does it rain a lot in Salzburg? ›

In Salzburg, precipitation amounts to 1210 millimeters (47.6 inches) per year: it is therefore quite abundant. It ranges from 50 mm (2 in) in the driest month (February) to 155 mm (6.1 in) in the wettest ones (June, August) Here is the average precipitation.

Is Meteoblue app free? ›

Offline mode: the app will save the weather data for each place until you are online again. Fast: The app is faster than the meteoblue website. The use of meteoblue for iOS is free of charge.

What is the Meteoblue weather model? ›

meteoblue weather models simulate physical processes. A weather model divides the world or a region into small grid cells. Each cell is about 4 km to 40 km wide and 100 m to 2 km high. Our models contain 60 atmospheric layers and reach deep into the stratosphere at 10 - 25 hPa (60 km altitude).

Where is meteoblue based? ›

Meteoblue (stylized as meteoblue) is a meteorological service created at the University of Basel, Switzerland.

What is the best weather forecasting site? ›

Here Are the Best Weather Radar Websites and Apps
  1. National Weather Service. Website: https://radar.weather.gov. ...
  2. The Weather Channel. Website: https://weather.com/maps/usdopplerradar. ...
  3. Windy. Website: https://www.windy.com. ...
  4. AccuWeather. ...
  5. Weather Underground. ...
  6. WeatherBug. ...
  7. NOAA Weather Radar Live.

What part of Salzburg is best to stay? ›

The most popular areas to stay in Salzburg are the Altstadt and Nonntal. While most of the attractions are located in these neighborhoods, other areas are worthy to be considered as well.

What is the sunniest place in Austria? ›

The so called 'Sonnenstadt Lienz' claims to be the sunniest town in the whole of Austria receiving on average more than 2000 hours of sunshine each year. The region enjoys warm and mild Mediterranean style temperatures during the summer months but is also snow assured during the winter months.

What is the warmest city in Austria? ›

If you want long, hot summers then head to Burgenland or Styria in the east, or Carinthia in the south of Austria. If you like city life and you want to enjoy hot weather in the summer with the possibility of some snow in the winter (but not too much), then Vienna or Graz are good options.

What is the number one free weather app? ›

AccuWeather (Android, iOS: Free)

AccuWeather is the app to turn to for hyperlocal forecasts that help you drill down to get the informations you need. The app's daily forecasts pack in everything from rain probability to air quality, wind, cloud coverage and UV index.

How do I install free weather app? ›

Just open the Google app, which comes pre-installed on most Android phones. If you don't have it for some reason, you can download it. Once the Google app is opened, you should see a small button showing weather info in the top-left corner of the Discover tab. Tap on it.

How does meteoblue work? ›

meteoblue weather models are based on the NMM (Nonhydrostatic Meso-Scale Modelling) technology. Model calculations are done for “domains” - large areas covering parts of (or even entire) continents, for which a complete forecast is calculated.

Which weather model is most accurate? ›

Types of Weather Models

The ECMWF is generally considered the most accurate, just slightly so, than the American system. However, they do provide access to weather predictions worldwide. The most accurate model, on average, is the European model.

What are the two types of Metars? ›

Type of report—there are two types of METAR reports. The first is the routine METAR report that is transmitted on a regular time interval. The second is the aviation selected SPECI.

What weather service does NASA use? ›

The Short-term Prediction Research and Transition (SPoRT) Center transitions the data from NASA research satellites to the NOAA National Weather Service (NWS) Weather Forecast Offices (WFOs).

Is the GFS model the most accurate? ›

Each model predicts weather out to different ranges in time. Parker says, The GFS model will predict conditions out to 16 days, but is most accurate in the 1-4 day range. Parker explained the NAM and HRRR models are typically more accurate for shorter range forecasting.

Which is better GFS or ECMWF? ›

Statistically speaking, the very clear answer is that the ECMWF consistently performs better than the GFS, as the model skill score graph above shows.

Where is the hardest weather to predict? ›

The Toughest Places to Forecast Weather in the U.S.
  • Great Lakes. ...
  • Northeast. ...
  • The Atlanta Wedge. ...
  • The High Plains/Rockies. ...
  • Oregon's Willamette Valley. ...
  • Southeast in Summer. ...
  • Coastal California. ...
  • MORE ON WEATHER.COM: Largest Temperature Swings in Each State.
7 Mar 2018

What is replacing dark sky? ›

While the Dark Sky app is officially shutting down at the end of December, the Dark Sky API and website will function until March 21, 2023. Developers who use the Dark Sky API can transition over to Apple's WeatherKit API.

Is AccuWeather more accurate than Google? ›

This comprehensive test analyzed over 25 million weather forecasts in more than 1,000 locations globally, and AccuWeather was the clear winner in high- and low-temperature forecasts, proving to have the lowest average absolute error and the greatest percentage of forecast accuracy within 3 degrees F.

How many days should I spend in Salzburg? ›

While you can see the most famous sights in Salzburg in one day, two is the ideal number of days to visit Salzburg. In two days in Salzburg, you can either spend one day in the city and go on a day trip the next day or dedicate two days to sightseeing in the old town.

Where do the rich live in Austria? ›

Innere Stadt

The very heart of Vienna, Innere Stadt is the epitome of luxury living in the Austrian capital.

Where is the best place to live in Austria? ›

To help inspire you, we've put together a list of 5 of the best places to live in Austria.
  • Vienna. The capital of Austria is a common favourite of the millions of tourists that travel there each year. ...
  • Innsbruck. ...
  • Salzburg. ...
  • Linz. ...
  • Graz.
4 Jun 2022

Is Austria colder than Germany? ›

The weather in Austria is colder than in Germany, with temperatures ranging from -15 degrees Celsius in the winter to 25 degrees Celsius in the summer. In contrast, Germany has more variation in temperature, with occasional heat waves during the summer months.

Is Austria a good place to retire? ›

With its high quality of life, low crime rate, and excellent social security system, it's hardly surprising that nearly a third of expats living in Austria consider staying there for life and spending their retirement there. All in all, for those retiring in Austria, life is pretty sweet.

What is the coldest city in Austria? ›

Since May 2007 Lunz am See has been the home of the "Wasser Cluster Lunz". It has been recorded as the coldest place in Central Europe, as a temperature of −52.6 °C (−62.7 °F) was measured here on 19 February 1932 at 47°49′13.7″N 15°2′42″E.

Are carrots free? ›

CARROT Weather is free to download. There's a 7-day free trial available to try out the Premium Club subscription. There are three subscription levels: Premium provides additional features like weather data sources, notifications, customization, widgets, and Apple Watch complications.

Is there a free weather app for iPhone? ›

Download the AccuWeather app today for free and enjoy award-winning Superior Accuracy in weather forecasting on your iPhone, Apple Watch, or other Apple device. More than just a daily forecast, try the best weather app and get more from your forecast.

Is weatherzone a free app? ›

Weatherzone Apps

This includes removal of all advertisements, local lightning information, Layers interactive weather map viewer, more historical data and other features for $5.99 per month.

What weather app do most pilots use? ›

  • Takeoff. Download for iOS and Andriod. ...
  • Flightradar24 Flight Tracker. Download for iOS and Android. ...
  • CloudTopper. Download for iOS and Android. ...
  • AeroWeather. Download on iOS and Android. ...
  • MyRadar. Download for iOS and Android. ...
  • Garmin Pilot. Download for iOS and Android. ...
  • METARs Aviation Weather. Download for iOS. ...
  • Avia Weather.
23 Mar 2019

What's the most accurate weather app 2022? ›

2022's Top 10 Most Accurate Weather Apps Forecasting:
  1. The Weather Channel – Best Free Weather App. ...
  2. AccuWeather – Most Accurate Weather App. ...
  3. WeatherBug – Best App for Free Weather Alerts. ...
  4. Dark Sky - Best Weather App for iPhone. ...
  5. Shadow Weather – Best Weather App for Android. ...
  6. FlowX – Most Interactive Weather App.

What is the most trustworthy weather app? ›

The 5 best weather apps: Check the weather forecast
  • AccuWeather. Best weather app overall. View now.
  • Carrot Weather. Best weather app for entertainment. View now.
  • Dark Sky. Best app for global weather. View now.
  • RadarScope. Best weather app for advanced tracking. View now.
  • The Weather Channel. Best free weather app. View now.
27 Oct 2022

Does Google have a free weather app? ›

Google's Weather app is part of the Google app on your Android phone, and you can easily add a separate widget to your home screen for getting timely updates about the weather in your area. To start with, launch your Google app or download it from the Play Store if you don't have it already.

What is the best and easiest weather app? ›

Best Weather Apps for 2022
  • The Weather Channel. Best all-service weather app. See at The Weather Channel.
  • Weather Underground. Best weather app for privacy. See at Weather Underground.
  • AccuWeather. Best daily weather app. ...
  • RadarScope. Best for serious weather junkies. ...
  • Dark Sky. Best for tracking weather around the world.
19 Aug 2022

How often does the Euro model update? ›

But the Euro and GFS are the two you'll hear about most often. These larger models run four times a day at midnight, 6 a.m., noon and 6 p.m. on UTC, though meteorologists use the "Zulu" time scale for model time stamps.

How good is Openweathermap? ›

The figure shows that MAE is about 0.5 degrees, RMSE is less than 2 degrees, reliability is between 90% and 100%, and inaccuracy is about 1% (less is better). It is clear that the OpenWeather NWP model provides the most accurate result.

Which model is more accurate American or European? ›

The European model is more computationally powerful than the American and is generally regarded as an all-around better model. That's due to the way data is organized and processed by the model's “under-the-hood” math and physics, in addition to the raw power of the supercomputer running it.

Is GFS more accurate than Europe? ›

"Since the ECMWF model and the GFS model are formulated a little differently, they can give different predictions," Easterling said. "Usually, the differences are things like the timing or exact track of an event, like a winter storm. In some instances, the GFS performs better, and in others the ECMWF performs better."

What does 30 percent rain mean? ›

It also doesn't mean it will rain 30% of the day. The percent chance of rain (or snow or thunderstorms) is called the “Probability of Precipitation,” or PoP. The figure refers to the chance that the forecast area will see at least 0.01 inches of rain, according to the National Weather Service.

What does P mean in METAR? ›

P. indicates greater than the highest reportable value. PCPN. precipitation.

What does a02 mean in a METAR? ›

AO1 denotes an observation taken by equipment lacking a precipitation type discriminator (rain vs. snow). AO2 denotes an observation taken by standard equipment with a full complement of sensors. A02A denotes an automated observation augmented by a human observer.

How long is a METAR valid for? ›

The METAR only gives you a small snapshot in time. They are only good for an hour. They are usually refreshed around 55 past the hour. TAFs, on the other hand, cover a 24 to 30 hour period and they are published 6 times a day (0000, 0600, 1200, 1800).

Which weather API is most accurate? ›

The Dark Sky app is one of the most accurate sources of hyperlocal weather information. The Dark Sky API (formerly Forecast.io) allows developers to access Dark Sky's weather data through the API (and was recently mentioned as one of the best weather APIs on reddit).

How accurate is MeteoGroup? ›

MeteoGroup was the most accurate provider in 2013. However, from 2014 onward, Weather Underground was the most accurate provider. In 2013, the most accurate provider, MeteoGroup, was 4.79 percentage points or 7.09% more accurate than Weather Underground, which was the seventh-most accurate for that year.

What is the most accurate weather model? ›

Global models with worldwide weather forecasts

The ECMWF is generally considered to be the most accurate global model, with the US's GFS slightly behind.

How accurate is meteorology? ›

In fact, according to the National Oceanic and Atmospheric Administration (NOAA), a five-day forecast is accurate about 80% (link resides outside ibm) of the time. A one-day temperature forecast is typically accurate within 2.5 degrees.

Who has the best weather data? ›

1. National Weather Service. The Most Accurate site there is. The US government product from the National Oceanic and Atmospheric Administration (NOAA) churns out numerous forecasts and nowcasts daily.

Who is more accurate AccuWeather or weather com? ›

This comprehensive test analyzed over 25 million weather forecasts in more than 1,000 locations globally, and AccuWeather was the clear winner in high- and low-temperature forecasts, proving to have the lowest average absolute error and the greatest percentage of forecast accuracy within 3 degrees F.

What is the most trusted weather channel? ›

With the most complete global real-time and historical data, most robust database of forecast models, most advanced forecast engine globally, proprietary patents, and comprehensive validation results, AccuWeather is the most accurate weather company worldwide.

Is BBC weather more accurate than Met Office? ›

The Met Office is regarded as the most reliable source for weather information in the UK.

Which weather model is most accurate Europe? ›

The basis for highly accurate forecasts is to be provided by the new and unique European weather model EURO1k.

What does 60% chance rain mean? ›

If they say 60% chance of rain, 60% of their area will experience rain at some point during the forecast period. The forecaster will often mention which interpretation they adhere to. Keep in mind, PoP only refers to the chance of precipitation, NOT how much rain you will get.

What does a 50 chance of rain mean? ›

Example 1: I am 100% confident that rain will form, but only 50% of the area will be affected. Plug these numbers into the equation. PoP = 1.0 x 0.5 = 0.5 = 50% Probability of Precipitation. Example 2: I am 50% confident that rain will form, but if it does, I am 100% confident that the entire area will be affected.

Videos

1. Weather API Tutorial in Python
(NeuralNine)
2. Interpreting Forecasts for Astrophotography
(Nebula Photos)
3. Microsoft Flight Simulator UPDATE: WEATHER!
(VR Flight Sim Guy)
4. Flash floods in Tyrol Austria today! Unwetter Tirol
(World Is Dangerous)
5. Saturday Scotland weather forecast 01/01/2022
(Met Office - Scotland Weather)
6. AIRBUS CRASH Snow Weather - MSFS 2022
(FLIGHT EAGLE)
Top Articles
Latest Posts
Article information

Author: Greg O'Connell

Last Updated: 12/26/2022

Views: 6302

Rating: 4.1 / 5 (42 voted)

Reviews: 89% of readers found this page helpful

Author information

Name: Greg O'Connell

Birthday: 1992-01-10

Address: Suite 517 2436 Jefferey Pass, Shanitaside, UT 27519

Phone: +2614651609714

Job: Education Developer

Hobby: Cooking, Gambling, Pottery, Shooting, Baseball, Singing, Snowboarding

Introduction: My name is Greg O'Connell, I am a delightful, colorful, talented, kind, lively, modern, tender person who loves writing and wants to share my knowledge and understanding with you.